Time;durP1;ratioP1;P1;durP2;ratioP2;P2;SDS_P1;SDS_P2;PMS_P1;PMS_P2;Temp;Humidity;BMP_temperature;BMP_pressure;BME280_temperature;BME280_humidity;BME280_pressure;Samples;Min_cycle;Max_cycle;Signal;HPM_P1;HPM_P2
2023/04/29 00:00:24;;;;;;;;;;;9.00;99.90;;;;;;5062581;28;19928;-88
2023/04/29 00:02:49;;;;;;;;;;;9.10;99.90;;;;;;5063467;28;19931;-90
2023/04/29 00:05:15;;;;;;;;;;;9.00;99.90;;;;;;5081840;28;19924;-88
2023/04/29 00:07:41;;;;;;;;;;;8.90;99.90;;;;;;5077507;28;19925;-90
2023/04/29 00:10:13;;;;;;;;;;;9.00;99.90;;;;;;5078278;28;19960;-88
2023/04/29 00:12:40;;;;;;;;;;;9.80;99.90;;;;;;5057636;28;19924;-90
2023/04/29 00:15:06;;;;;;;;;;;9.10;99.90;;;;;;5053631;28;19970;-90
2023/04/29 00:17:31;;;;;;;;;;;9.00;99.90;;;;;;5068308;28;19928;-89
2023/04/29 00:19:57;;;;;;;;;;;9.00;99.90;;;;;;5057077;28;20424;-89
2023/04/29 00:22:22;;;;;;;;;;;9.00;99.90;;;;;;5054570;28;19964;-89
2023/04/29 00:24:49;;;;;;;;;;;8.90;99.90;;;;;;5040698;28;19996;-90
2023/04/29 00:27:16;;;;;;;;;;;8.90;99.90;;;;;;5056804;28;19925;-89
2023/04/29 00:29:42;;;;;;;;;;;8.90;99.90;;;;;;5033274;28;20361;-89
2023/04/29 00:32:08;;;;;;;;;;;8.90;99.90;;;;;;5055681;28;19964;-88
2023/04/29 00:34:33;;;;;;;;;;;8.90;99.90;;;;;;5053014;28;19976;-89
2023/04/29 00:36:59;;;;;;;;;;;8.80;99.90;;;;;;5038469;28;19925;-88
2023/04/29 00:39:24;;;;;;;;;;;8.80;99.90;;;;;;5066233;28;20016;-88
2023/04/29 00:41:50;;;;;;;;;;;8.80;99.90;;;;;;5052287;28;20004;-88
2023/04/29 00:44:16;;;;;;;;;;;10.10;99.90;;;;;;5062336;28;19946;-89
2023/04/29 00:46:42;;;;;;;;;;;8.80;99.90;;;;;;5059325;28;19968;-88
2023/04/29 00:49:08;;;;;;;;;;;8.80;99.90;;;;;;5045444;28;19925;-89
2023/04/29 00:51:35;;;;;;;;;;;8.80;99.90;;;;;;5042817;28;20459;-88
2023/04/29 00:54:01;;;;;;;;;;;8.70;99.90;;;;;;5064160;28;20023;-89
2023/04/29 00:56:29;;;;;;;;;;;8.70;99.90;;;;;;5053823;28;19932;-89
2023/04/29 00:58:56;;;;;;;;;;;8.70;99.90;;;;;;5060886;28;19925;-89
2023/04/29 01:01:22;;;;;;;;;;;8.70;99.90;;;;;;5056063;28;19975;-89
2023/04/29 01:03:47;;;;;;;;;;;8.70;99.90;;;;;;5042157;28;19933;-88
2023/04/29 01:06:16;;;;;;;;;;;8.70;99.90;;;;;;5050463;28;19935;-90
2023/04/29 01:08:45;;;;;;;;;;;8.70;99.90;;;;;;5039435;28;19925;-88
2023/04/29 01:11:11;;;;;;;;;;;8.70;99.90;;;;;;5053659;28;20424;-88
2023/04/29 01:13:37;;;;;;;;;;;8.60;99.90;;;;;;5062867;28;19931;-89
2023/04/29 01:16:07;;;;;;;;;;;8.70;99.90;;;;;;5048604;28;19996;-90
2023/04/29 01:18:38;;;;;;;;;;;8.70;99.90;;;;;;5059901;28;19925;-88
2023/04/29 01:21:03;;;;;;;;;;;8.70;99.90;;;;;;5040329;28;19924;-90
2023/04/29 01:23:29;;;;;;;;;;;8.70;99.90;;;;;;5082132;28;19964;-88
2023/04/29 01:25:58;;;;;;;;;;;8.70;99.90;;;;;;5058628;28;20387;-89
2023/04/29 01:28:23;;;;;;;;;;;8.70;99.90;;;;;;5081208;28;19928;-89
2023/04/29 01:30:54;;;;;;;;;;;8.70;99.90;;;;;;5068894;28;20017;-89
2023/04/29 01:33:34;;;;;;;;;;;8.70;99.90;;;;;;5053925;28;19935;-89
2023/04/29 01:36:18;;;;;;;;;;;8.60;99.90;;;;;;5071251;28;19924;-88
2023/04/29 01:38:56;;;;;;;;;;;8.60;99.90;;;;;;5070015;28;19928;-89
2023/04/29 01:41:29;;;;;;;;;;;8.60;99.90;;;;;;5075493;28;19931;-89
2023/04/29 01:43:55;;;;;;;;;;;8.60;99.90;;;;;;5063727;28;20266;-88
2023/04/29 01:46:21;;;;;;;;;;;8.60;99.90;;;;;;5077700;28;19924;-89
2023/04/29 01:48:46;;;;;;;;;;;8.50;99.90;;;;;;5078314;28;20271;-87
2023/04/29 01:51:12;;;;;;;;;;;8.50;99.90;;;;;;5068702;28;19932;-89
2023/04/29 01:53:42;;;;;;;;;;;8.50;99.90;;;;;;5081014;28;19936;-89
2023/04/29 01:56:07;;;;;;;;;;;8.50;99.90;;;;;;5076986;28;19929;-89
2023/04/29 01:58:33;;;;;;;;;;;8.50;99.90;;;;;;5058695;28;19925;-89
2023/04/29 02:00:58;;;;;;;;;;;8.50;99.90;;;;;;5061747;28;19928;-88
2023/04/29 02:03:24;;;;;;;;;;;8.40;99.90;;;;;;5079336;28;19932;-89
2023/04/29 02:05:50;;;;;;;;;;;8.40;99.90;;;;;;5060318;28;20449;-88
2023/04/29 02:08:16;;;;;;;;;;;8.30;99.90;;;;;;5076019;28;19966;-89
2023/04/29 02:10:50;;;;;;;;;;;8.20;99.90;;;;;;5068043;28;19932;-89
2023/04/29 02:13:16;;;;;;;;;;;8.10;99.90;;;;;;5082376;28;19924;-89
2023/04/29 02:15:41;;;;;;;;;;;8.00;99.90;;;;;;5057599;28;20015;-89
2023/04/29 02:18:07;;;;;;;;;;;8.00;99.90;;;;;;5078963;28;19932;-88
2023/04/29 02:20:33;;;;;;;;;;;7.90;99.90;;;;;;5078365;28;19933;-89
2023/04/29 02:22:58;;;;;;;;;;;8.30;99.90;;;;;;5083556;28;20362;-89
2023/04/29 02:25:24;;;;;;;;;;;7.80;99.90;;;;;;5070923;28;19935;-88
2023/04/29 02:27:50;;;;;;;;;;;7.70;99.90;;;;;;5083020;28;19924;-88
2023/04/29 02:30:16;;;;;;;;;;;7.60;99.90;;;;;;5056082;28;20466;-88
2023/04/29 02:32:41;;;;;;;;;;;7.50;99.90;;;;;;5075978;28;19924;-89
2023/04/29 02:35:07;;;;;;;;;;;7.40;99.90;;;;;;5073073;28;19924;-88
2023/04/29 02:37:33;;;;;;;;;;;7.40;99.90;;;;;;5059471;28;19924;-89
2023/04/29 02:39:59;;;;;;;;;;;7.40;99.90;;;;;;5064701;28;20015;-88
2023/04/29 02:42:24;;;;;;;;;;;7.40;99.90;;;;;;5060287;28;20003;-88
2023/04/29 02:44:50;;;;;;;;;;;7.40;99.90;;;;;;5081761;28;19987;-88
2023/04/29 02:47:15;;;;;;;;;;;7.30;99.90;;;;;;5063307;28;19995;-88
2023/04/29 02:49:41;;;;;;;;;;;7.30;99.90;;;;;;5080240;28;19970;-88
2023/04/29 02:52:08;;;;;;;;;;;7.30;99.90;;;;;;5080608;28;20168;-89
2023/04/29 02:54:35;;;;;;;;;;;7.40;99.90;;;;;;5081973;28;19925;-89
2023/04/29 02:57:00;;;;;;;;;;;7.50;99.90;;;;;;5078650;28;19924;-88
2023/04/29 02:59:26;;;;;;;;;;;7.50;99.90;;;;;;5080779;28;19987;-88
2023/04/29 03:01:53;;;;;;;;;;;7.70;99.90;;;;;;5055358;28;19925;-89
2023/04/29 03:04:19;;;;;;;;;;;7.60;99.90;;;;;;5079955;28;19924;-88
2023/04/29 03:06:44;;;;;;;;;;;7.60;99.90;;;;;;5064128;28;19924;-89
2023/04/29 03:09:12;;;;;;;;;;;7.60;99.90;;;;;;5079378;28;20422;-88
2023/04/29 03:11:37;;;;;;;;;;;7.60;99.90;;;;;;5076968;28;19924;-89
2023/04/29 03:14:03;;;;;;;;;;;7.70;99.90;;;;;;5060328;28;20094;-88
2023/04/29 03:16:29;;;;;;;;;;;7.70;99.90;;;;;;5079254;28;19924;-89
2023/04/29 03:18:54;;;;;;;;;;;7.80;99.90;;;;;;5081044;28;19924;-88
2023/04/29 03:21:20;;;;;;;;;;;7.80;99.90;;;;;;5072959;28;20105;-89
2023/04/29 03:23:46;;;;;;;;;;;7.90;99.90;;;;;;5078312;28;19928;-89
2023/04/29 03:26:11;;;;;;;;;;;7.90;99.90;;;;;;5076296;28;19933;-89
2023/04/29 03:28:37;;;;;;;;;;;7.80;99.90;;;;;;5082900;28;19928;-89
2023/04/29 03:31:02;;;;;;;;;;;7.80;99.90;;;;;;5059237;28;19930;-88
2023/04/29 03:33:28;;;;;;;;;;;7.90;99.90;;;;;;5040724;28;19935;-88
2023/04/29 03:35:54;;;;;;;;;;;8.00;99.90;;;;;;5058607;28;19929;-88
2023/04/29 03:38:20;;;;;;;;;;;8.00;99.90;;;;;;5058250;28;19928;-89
2023/04/29 03:40:46;;;;;;;;;;;8.00;99.90;;;;;;5076175;28;19959;-89
2023/04/29 03:43:12;;;;;;;;;;;8.00;99.90;;;;;;5076613;28;20403;-89
2023/04/29 03:45:38;;;;;;;;;;;7.90;99.90;;;;;;5077261;28;19924;-89
2023/04/29 03:48:04;;;;;;;;;;;8.00;99.90;;;;;;5072180;28;19958;-88
2023/04/29 03:50:30;;;;;;;;;;;8.00;99.90;;;;;;5075305;28;20011;-89
2023/04/29 03:52:56;;;;;;;;;;;8.00;99.90;;;;;;5060016;28;20021;-88
2023/04/29 03:55:22;;;;;;;;;;;8.00;99.90;;;;;;5072114;28;19971;-88
2023/04/29 03:57:48;;;;;;;;;;;8.00;99.90;;;;;;5073696;28;19925;-89
2023/04/29 04:00:14;;;;;;;;;;;8.00;99.90;;;;;;5075898;28;20392;-89
2023/04/29 04:02:39;;;;;;;;;;;8.00;99.90;;;;;;5076454;28;20269;-90
2023/04/29 04:05:05;;;;;;;;;;;8.00;99.90;;;;;;5053755;28;19987;-88
2023/04/29 04:07:31;;;;;;;;;;;8.10;99.90;;;;;;5077956;28;20390;-88
2023/04/29 04:09:56;;;;;;;;;;;8.20;99.90;;;;;;5061303;28;19928;-89
2023/04/29 04:12:22;;;;;;;;;;;8.10;99.90;;;;;;5073229;28;19924;-89
2023/04/29 04:14:47;;;;;;;;;;;8.20;99.90;;;;;;5075386;28;19968;-88
2023/04/29 04:17:13;;;;;;;;;;;8.20;99.90;;;;;;5066961;28;20020;-89
2023/04/29 04:19:38;;;;;;;;;;;8.20;99.90;;;;;;5079510;28;19924;-89
2023/04/29 04:22:04;;;;;;;;;;;8.20;99.90;;;;;;5079410;28;19925;-88
2023/04/29 04:24:30;;;;;;;;;;;8.10;99.90;;;;;;5065473;28;20407;-89
2023/04/29 04:26:55;;;;;;;;;;;8.20;99.90;;;;;;5073456;28;19959;-89
2023/04/29 04:29:23;;;;;;;;;;;8.20;99.90;;;;;;5073491;28;19947;-89
2023/04/29 04:31:49;;;;;;;;;;;8.20;99.90;;;;;;5072615;28;19924;-89
2023/04/29 04:34:14;;;;;;;;;;;8.20;99.90;;;;;;5070531;28;19955;-89
2023/04/29 04:36:41;;;;;;;;;;;8.20;99.90;;;;;;5075248;28;20029;-88
2023/04/29 04:39:07;;;;;;;;;;;8.20;99.90;;;;;;5063161;28;19959;-88
2023/04/29 04:41:32;;;;;;;;;;;8.20;99.90;;;;;;5064521;28;19925;-87
2023/04/29 04:43:58;;;;;;;;;;;8.30;99.90;;;;;;5078796;28;19935;-88
2023/04/29 04:46:24;;;;;;;;;;;8.30;99.90;;;;;;5071993;28;19929;-89
2023/04/29 04:48:50;;;;;;;;;;;8.20;99.90;;;;;;5068052;28;19931;-88
2023/04/29 04:51:15;;;;;;;;;;;8.20;99.90;;;;;;5078463;28;19970;-88
2023/04/29 04:53:41;;;;;;;;;;;8.20;99.90;;;;;;5080084;28;19932;-88
2023/04/29 04:56:07;;;;;;;;;;;8.20;99.90;;;;;;5071872;28;19929;-88
2023/04/29 04:58:32;;;;;;;;;;;8.20;99.90;;;;;;5082609;28;19997;-88
2023/04/29 05:00:59;;;;;;;;;;;8.20;99.90;;;;;;5067791;28;19962;-88
2023/04/29 05:03:24;;;;;;;;;;;8.20;99.90;;;;;;5077886;28;19928;-89
2023/04/29 05:05:57;;;;;;;;;;;8.20;99.90;;;;;;5081153;28;19935;-87
2023/04/29 05:08:23;;;;;;;;;;;8.20;99.90;;;;;;5079640;28;19932;-89
2023/04/29 05:10:48;;;;;;;;;;;8.20;99.90;;;;;;5081160;28;19925;-88
2023/04/29 05:13:14;;;;;;;;;;;8.20;99.90;;;;;;5079158;28;19928;-89
2023/04/29 05:15:40;;;;;;;;;;;8.10;99.90;;;;;;5061567;28;20015;-89
2023/04/29 05:18:05;;;;;;;;;;;8.30;99.90;;;;;;5078952;28;19999;-89
2023/04/29 05:20:31;;;;;;;;;;;8.30;99.90;;;;;;5078214;28;19924;-90
2023/04/29 05:22:56;;;;;;;;;;;8.30;99.90;;;;;;5063752;28;19931;-89
2023/04/29 05:25:22;;;;;;;;;;;8.30;99.90;;;;;;5079982;28;20013;-91
2023/04/29 05:27:48;;;;;;;;;;;8.30;99.90;;;;;;5080747;28;20028;-91
2023/04/29 05:30:14;;;;;;;;;;;8.40;99.90;;;;;;5069902;28;19934;-88
2023/04/29 05:32:40;;;;;;;;;;;8.40;99.90;;;;;;5061648;28;19961;-90
2023/04/29 05:35:06;;;;;;;;;;;8.40;99.90;;;;;;5058399;28;19933;-87
2023/04/29 05:37:32;;;;;;;;;;;8.40;99.90;;;;;;5081187;28;19947;-89
2023/04/29 05:39:57;;;;;;;;;;;8.40;99.90;;;;;;5068714;28;19924;-88
2023/04/29 05:42:23;;;;;;;;;;;8.50;99.90;;;;;;5078253;28;19928;-88
2023/04/29 05:44:49;;;;;;;;;;;8.50;99.90;;;;;;5080200;28;19954;-88
2023/04/29 05:47:14;;;;;;;;;;;8.50;99.90;;;;;;5078105;28;19925;-88
2023/04/29 05:49:40;;;;;;;;;;;8.50;99.90;;;;;;5076475;28;20295;-87
2023/04/29 05:52:06;;;;;;;;;;;8.50;99.90;;;;;;5047148;28;19925;-88
2023/04/29 05:54:32;;;;;;;;;;;8.50;99.90;;;;;;5080186;28;19925;-87
2023/04/29 05:56:58;;;;;;;;;;;8.60;99.90;;;;;;5073538;28;19935;-87
2023/04/29 05:59:24;;;;;;;;;;;8.70;99.90;;;;;;5079351;28;19929;-88
2023/04/29 06:01:50;;;;;;;;;;;8.80;99.90;;;;;;5062858;28;19924;-88
2023/04/29 06:04:15;;;;;;;;;;;8.80;99.90;;;;;;5077187;28;19930;-87
2023/04/29 06:06:41;;;;;;;;;;;8.80;99.90;;;;;;5072010;28;19924;-88
2023/04/29 06:09:07;;;;;;;;;;;8.90;99.90;;;;;;5051372;28;19984;-88
2023/04/29 06:11:33;;;;;;;;;;;9.00;99.90;;;;;;5079757;28;19939;-88
2023/04/29 06:13:58;;;;;;;;;;;9.00;99.90;;;;;;5079016;28;19928;-87
2023/04/29 06:16:24;;;;;;;;;;;9.00;99.90;;;;;;5075597;28;19930;-87
2023/04/29 06:18:49;;;;;;;;;;;9.10;99.90;;;;;;5073406;28;20451;-87
2023/04/29 06:21:15;;;;;;;;;;;9.10;99.90;;;;;;5067927;28;19924;-88
2023/04/29 06:23:41;;;;;;;;;;;9.20;99.90;;;;;;5060391;28;19932;-88
2023/04/29 06:26:06;;;;;;;;;;;9.30;99.90;;;;;;5058265;28;19935;-87
2023/04/29 06:28:32;;;;;;;;;;;9.30;99.90;;;;;;5074867;28;19928;-88
2023/04/29 06:30:57;;;;;;;;;;;9.30;99.90;;;;;;5058042;28;20312;-90
2023/04/29 06:33:23;;;;;;;;;;;9.30;99.90;;;;;;5071258;28;19929;-89
2023/04/29 06:35:48;;;;;;;;;;;9.30;99.90;;;;;;5064793;28;19925;-88
2023/04/29 06:38:14;;;;;;;;;;;9.30;99.90;;;;;;5076886;28;19928;-88
2023/04/29 06:40:40;;;;;;;;;;;9.40;99.90;;;;;;5068344;28;19924;-88
2023/04/29 06:43:05;;;;;;;;;;;9.50;99.90;;;;;;5074511;28;19929;-88
2023/04/29 06:45:31;;;;;;;;;;;9.50;99.90;;;;;;5068905;28;19931;-89
2023/04/29 06:47:56;;;;;;;;;;;9.40;99.90;;;;;;5052808;28;19929;-87
2023/04/29 06:50:22;;;;;;;;;;;9.50;99.90;;;;;;5071731;28;19999;-89
2023/04/29 06:52:48;;;;;;;;;;;9.50;99.90;;;;;;5060141;28;20390;-88
2023/04/29 06:55:13;;;;;;;;;;;9.60;99.90;;;;;;5060023;28;19937;-89
2023/04/29 06:57:39;;;;;;;;;;;9.60;99.90;;;;;;5060596;28;19956;-89
2023/04/29 07:00:05;;;;;;;;;;;9.70;99.90;;;;;;5067978;28;20399;-88
2023/04/29 07:02:30;;;;;;;;;;;9.70;99.90;;;;;;5060956;28;20011;-88
2023/04/29 07:04:56;;;;;;;;;;;9.80;99.90;;;;;;5076741;28;20003;-88
2023/04/29 07:07:22;;;;;;;;;;;9.80;99.90;;;;;;5075877;28;20003;-88
2023/04/29 07:09:50;;;;;;;;;;;9.80;99.90;;;;;;5075028;28;19947;-88
2023/04/29 07:12:16;;;;;;;;;;;9.90;99.90;;;;;;5068804;28;19936;-89
2023/04/29 07:14:41;;;;;;;;;;;10.00;99.90;;;;;;5074735;28;19936;-89
2023/04/29 07:17:07;;;;;;;;;;;10.10;99.90;;;;;;5062202;28;19976;-89
2023/04/29 07:19:33;;;;;;;;;;;10.10;99.90;;;;;;5061775;28;19924;-86
2023/04/29 07:21:58;;;;;;;;;;;10.00;99.90;;;;;;5082722;28;19980;-87
2023/04/29 07:24:25;;;;;;;;;;;10.10;99.90;;;;;;5072089;28;19928;-86
2023/04/29 07:26:51;;;;;;;;;;;10.10;99.90;;;;;;5076836;28;19925;-85
2023/04/29 07:29:16;;;;;;;;;;;10.20;99.90;;;;;;5074974;28;20000;-87
2023/04/29 07:31:42;;;;;;;;;;;10.30;99.90;;;;;;5067162;28;19951;-86
2023/04/29 07:34:07;;;;;;;;;;;10.30;99.90;;;;;;5075849;28;19958;-87
2023/04/29 07:36:34;;;;;;;;;;;10.40;99.90;;;;;;5061396;28;19940;-87
2023/04/29 07:38:59;;;;;;;;;;;10.40;99.90;;;;;;5075437;28;19955;-87
2023/04/29 07:41:26;;;;;;;;;;;10.40;99.90;;;;;;5072312;28;19925;-87
2023/04/29 07:43:51;;;;;;;;;;;10.50;99.90;;;;;;5077187;28;19924;-86
2023/04/29 07:46:17;;;;;;;;;;;10.60;99.90;;;;;;5043317;28;19925;-90
2023/04/29 07:48:44;;;;;;;;;;;10.60;99.90;;;;;;5057332;28;19931;-90
2023/04/29 07:51:16;;;;;;;;;;;10.80;99.90;;;;;;5076279;28;19946;-91
2023/04/29 07:53:42;;;;;;;;;;;10.90;99.90;;;;;;5080019;28;19931;-89
2023/04/29 07:56:08;;;;;;;;;;;10.90;99.90;;;;;;5056673;28;20014;-90
2023/04/29 07:58:34;;;;;;;;;;;10.90;99.90;;;;;;5081306;28;19936;-91
2023/04/29 08:01:10;;;;;;;;;;;10.90;99.90;;;;;;5066269;28;19924;-90
2023/04/29 08:03:36;;;;;;;;;;;11.00;99.90;;;;;;5078991;28;19931;-90
2023/04/29 08:06:05;;;;;;;;;;;11.10;99.90;;;;;;5081775;28;19968;-91
2023/04/29 08:08:31;;;;;;;;;;;11.00;99.90;;;;;;5066632;28;19925;-90
2023/04/29 08:10:56;;;;;;;;;;;11.10;99.90;;;;;;5066859;28;19929;-90
2023/04/29 08:13:22;;;;;;;;;;;11.10;99.90;;;;;;5066550;28;19924;-91
2023/04/29 08:15:48;;;;;;;;;;;11.10;99.90;;;;;;5083728;28;19931;-90
2023/04/29 08:18:13;;;;;;;;;;;11.20;99.90;;;;;;5045763;28;19933;-91
2023/04/29 08:20:39;;;;;;;;;;;12.50;99.90;;;;;;5042814;28;19928;-91
2023/04/29 08:23:04;;;;;;;;;;;11.40;99.90;;;;;;5079115;28;20501;-90
2023/04/29 08:25:30;;;;;;;;;;;11.40;99.90;;;;;;5063041;28;19925;-90
2023/04/29 08:27:56;;;;;;;;;;;11.40;99.90;;;;;;5080799;28;19928;-90
2023/04/29 08:30:22;;;;;;;;;;;11.30;99.90;;;;;;5066810;28;19928;-90
2023/04/29 08:32:48;;;;;;;;;;;11.40;99.90;;;;;;5087402;28;19946;-91
2023/04/29 08:35:14;;;;;;;;;;;11.40;99.90;;;;;;5074582;28;19929;-91
2023/04/29 08:37:39;;;;;;;;;;;11.40;99.90;;;;;;5073010;28;19940;-91
2023/04/29 08:40:06;;;;;;;;;;;11.50;99.90;;;;;;5065948;28;19930;-92
2023/04/29 08:42:35;;;;;;;;;;;11.50;99.90;;;;;;5085045;28;19924;-90
2023/04/29 08:45:01;;;;;;;;;;;11.60;99.90;;;;;;5070595;28;19932;-92
2023/04/29 08:47:29;;;;;;;;;;;11.70;99.90;;;;;;5082035;28;19939;-91
2023/04/29 08:49:55;;;;;;;;;;;11.70;99.90;;;;;;5076659;28;19935;-92
2023/04/29 08:52:20;;;;;;;;;;;11.80;99.90;;;;;;5080914;28;20618;-90
2023/04/29 08:54:46;;;;;;;;;;;11.90;99.90;;;;;;5085285;28;19924;-91
2023/04/29 08:57:12;;;;;;;;;;;12.00;99.90;;;;;;5083928;28;19924;-90
2023/04/29 08:59:37;;;;;;;;;;;12.10;99.90;;;;;;5066395;28;19935;-91
2023/04/29 09:02:05;;;;;;;;;;;12.10;99.90;;;;;;5069258;28;20023;-90
2023/04/29 09:04:33;;;;;;;;;;;12.10;99.90;;;;;;5059505;28;19951;-89
2023/04/29 09:06:59;;;;;;;;;;;12.10;99.90;;;;;;5076948;28;19924;-90
2023/04/29 09:09:25;;;;;;;;;;;12.20;99.90;;;;;;5076110;28;19932;-90
2023/04/29 09:11:51;;;;;;;;;;;12.30;99.90;;;;;;5065308;28;19925;-92
2023/04/29 09:14:17;;;;;;;;;;;12.30;99.90;;;;;;5080173;28;19931;-87
2023/04/29 09:16:46;;;;;;;;;;;12.30;99.90;;;;;;5062209;28;19924;-87
2023/04/29 09:19:27;;;;;;;;;;;12.30;99.90;;;;;;5078797;28;19929;-90
2023/04/29 09:21:55;;;;;;;;;;;12.40;99.90;;;;;;5072092;28;19935;-88
2023/04/29 09:24:24;;;;;;;;;;;12.80;99.90;;;;;;5071202;28;19925;-89
2023/04/29 09:26:50;;;;;;;;;;;12.50;99.90;;;;;;5041369;28;19932;-88
2023/04/29 09:29:17;;;;;;;;;;;12.50;99.90;;;;;;5060135;28;19925;-90
2023/04/29 09:31:43;;;;;;;;;;;12.70;99.90;;;;;;5042104;28;19928;-89
2023/04/29 09:34:13;;;;;;;;;;;12.60;99.90;;;;;;5058998;28;19932;-92
2023/04/29 09:36:46;;;;;;;;;;;12.70;99.90;;;;;;5077081;28;19925;-91
2023/04/29 09:39:13;;;;;;;;;;;12.70;99.90;;;;;;5068411;28;19924;-92
2023/04/29 09:41:54;;;;;;;;;;;12.70;99.90;;;;;;5043766;28;19929;-92
2023/04/29 09:44:20;;;;;;;;;;;12.80;99.90;;;;;;5073636;28;19933;-91
2023/04/29 09:46:56;;;;;;;;;;;12.80;99.90;;;;;;5059651;28;19925;-92
2023/04/29 09:49:23;;;;;;;;;;;12.90;99.90;;;;;;5038000;28;19932;-91
2023/04/29 09:51:53;;;;;;;;;;;13.00;99.90;;;;;;5061712;28;19971;-90
2023/04/29 09:54:19;;;;;;;;;;;13.10;99.90;;;;;;5084525;28;20007;-92
2023/04/29 09:56:51;;;;;;;;;;;13.10;99.90;;;;;;5047574;28;19931;-93
2023/04/29 09:59:20;;;;;;;;;;;13.30;99.90;;;;;;5063076;28;19992;-90
2023/04/29 10:01:50;;;;;;;;;;;13.20;99.90;;;;;;5060252;28;19924;-91
2023/04/29 10:04:17;;;;;;;;;;;13.30;99.90;;;;;;5055391;28;19933;-91
2023/04/29 10:06:47;;;;;;;;;;;13.40;99.90;;;;;;5077392;28;19925;-91
2023/04/29 10:09:17;;;;;;;;;;;13.30;99.90;;;;;;5057077;28;19984;-92
2023/04/29 10:11:52;;;;;;;;;;;13.30;99.90;;;;;;5054353;28;19925;-93
2023/04/29 10:14:18;;;;;;;;;;;13.30;99.90;;;;;;5051068;28;19925;-91
2023/04/29 10:16:47;;;;;;;;;;;13.30;99.90;;;;;;5052997;28;19940;-92
2023/04/29 10:19:16;;;;;;;;;;;13.30;99.90;;;;;;5071793;28;20023;-91
2023/04/29 10:21:41;;;;;;;;;;;13.50;99.90;;;;;;5079800;28;19924;-92
2023/04/29 10:24:09;;;;;;;;;;;13.60;99.90;;;;;;5060566;28;19931;-92
2023/04/29 10:26:38;;;;;;;;;;;13.50;99.90;;;;;;5063839;28;19987;-92
2023/04/29 10:29:04;;;;;;;;;;;13.50;99.90;;;;;;5076852;28;19928;-91
2023/04/29 10:31:30;;;;;;;;;;;13.60;99.90;;;;;;5061707;28;19925;-90
2023/04/29 10:33:56;;;;;;;;;;;13.50;99.90;;;;;;5052593;28;19924;-91
2023/04/29 10:36:23;;;;;;;;;;;13.60;99.90;;;;;;5077925;28;19991;-90
2023/04/29 10:38:53;;;;;;;;;;;13.60;99.90;;;;;;5086305;28;19928;-87
2023/04/29 10:41:24;;;;;;;;;;;13.70;99.90;;;;;;5097888;28;19924;-90
2023/04/29 10:43:53;;;;;;;;;;;13.80;99.90;;;;;;5075785;28;20374;-90
2023/04/29 10:46:23;;;;;;;;;;;13.80;99.90;;;;;;5102398;28;19935;-91
2023/04/29 10:48:55;;;;;;;;;;;13.80;99.90;;;;;;5086810;28;19931;-90
2023/04/29 10:51:31;;;;;;;;;;;13.80;99.90;;;;;;5059491;28;19924;-91
2023/04/29 10:53:58;;;;;;;;;;;13.90;99.90;;;;;;5063936;28;19967;-90
2023/04/29 10:56:34;;;;;;;;;;;13.90;99.90;;;;;;5063310;28;19932;-91
2023/04/29 10:58:59;;;;;;;;;;;13.90;99.90;;;;;;5063574;28;19925;-92
2023/04/29 11:01:40;;;;;;;;;;;13.90;99.90;;;;;;5076914;28;19931;-92
2023/04/29 11:04:05;;;;;;;;;;;13.90;99.90;;;;;;5080392;28;19931;-91
2023/04/29 11:06:34;;;;;;;;;;;14.00;99.90;;;;;;5066602;28;19924;-90
2023/04/29 11:09:06;;;;;;;;;;;14.00;99.90;;;;;;5074945;28;19957;-90
2023/04/29 11:11:56;;;;;;;;;;;14.20;97.90;;;;;;5088023;28;19923;-88
2023/04/29 11:14:28;;;;;;;;;;;14.20;97.90;;;;;;5085711;28;19924;-87
2023/04/29 11:16:57;;;;;;;;;;;14.20;99.50;;;;;;5078408;28;19932;-88
2023/04/29 11:19:30;;;;;;;;;;;14.20;97.70;;;;;;5072179;28;19932;-88
2023/04/29 11:22:11;;;;;;;;;;;14.10;95.80;;;;;;5064271;28;19924;-88
2023/04/29 11:24:50;;;;;;;;;;;14.30;96.00;;;;;;5075920;28;19928;-89
2023/04/29 11:27:17;;;;;;;;;;;14.30;97.00;;;;;;5066416;28;19932;-87
2023/04/29 11:29:44;;;;;;;;;;;14.50;94.50;;;;;;5074213;28;19935;-89
2023/04/29 11:32:10;;;;;;;;;;;14.50;90.50;;;;;;5090198;28;19949;-88
2023/04/29 11:34:35;;;;;;;;;;;14.40;91.70;;;;;;5052406;28;19976;-90
2023/04/29 11:37:03;;;;;;;;;;;14.40;88.00;;;;;;5071155;28;19924;-88
2023/04/29 11:39:29;;;;;;;;;;;14.40;81.60;;;;;;5093481;28;20303;-88
2023/04/29 11:42:05;;;;;;;;;;;14.30;88.00;;;;;;5080302;28;19924;-89
2023/04/29 11:44:32;;;;;;;;;;;14.30;90.60;;;;;;5087923;28;19932;-91
2023/04/29 11:47:04;;;;;;;;;;;14.30;91.60;;;;;;5074045;28;19960;-89
2023/04/29 11:49:31;;;;;;;;;;;14.30;94.00;;;;;;5074718;28;19925;-89
2023/04/29 11:51:57;;;;;;;;;;;14.50;90.70;;;;;;5075041;28;19928;-88
2023/04/29 11:54:26;;;;;;;;;;;14.50;92.10;;;;;;5075291;28;19971;-89
2023/04/29 11:56:56;;;;;;;;;;;14.40;95.30;;;;;;5071386;28;19978;-89
2023/04/29 11:59:22;;;;;;;;;;;14.50;95.00;;;;;;5074479;28;20002;-88
2023/04/29 12:01:48;;;;;;;;;;;14.50;94.10;;;;;;5097326;28;19928;-88
2023/04/29 12:04:15;;;;;;;;;;;14.60;95.50;;;;;;5078543;28;19928;-88
2023/04/29 12:06:41;;;;;;;;;;;14.70;94.50;;;;;;5073993;28;19924;-88
2023/04/29 12:09:07;;;;;;;;;;;14.60;95.60;;;;;;5076257;28;20006;-89
2023/04/29 12:11:34;;;;;;;;;;;14.60;94.90;;;;;;5089608;28;19930;-90
2023/04/29 12:14:02;;;;;;;;;;;14.60;96.80;;;;;;5036753;28;19971;-89
2023/04/29 12:16:29;;;;;;;;;;;14.70;94.70;;;;;;5075277;28;19924;-90
2023/04/29 12:18:55;;;;;;;;;;;14.70;94.70;;;;;;5070966;28;19932;-88
2023/04/29 12:21:21;;;;;;;;;;;14.60;93.60;;;;;;5057443;28;19924;-90
2023/04/29 12:23:47;;;;;;;;;;;14.60;95.30;;;;;;5076995;28;19932;-89
2023/04/29 12:26:13;;;;;;;;;;;14.50;97.00;;;;;;5080987;28;19987;-88
2023/04/29 12:28:41;;;;;;;;;;;14.40;95.70;;;;;;5089646;28;19920;-87
2023/04/29 12:31:08;;;;;;;;;;;14.50;94.20;;;;;;5063571;28;19924;-87
2023/04/29 12:33:33;;;;;;;;;;;14.50;92.80;;;;;;5080758;28;20296;-88
2023/04/29 12:35:59;;;;;;;;;;;14.50;92.00;;;;;;5061882;28;19924;-87
2023/04/29 12:38:26;;;;;;;;;;;14.50;93.10;;;;;;5075373;28;19931;-89
2023/04/29 12:40:53;;;;;;;;;;;14.50;95.10;;;;;;5093135;28;19939;-88
2023/04/29 12:43:19;;;;;;;;;;;14.50;94.60;;;;;;5081593;28;19924;-88
2023/04/29 12:45:44;;;;;;;;;;;14.60;96.10;;;;;;5103786;28;19970;-87
2023/04/29 12:48:11;;;;;;;;;;;14.70;93.60;;;;;;5082763;28;19946;-88
2023/04/29 12:50:37;;;;;;;;;;;14.70;93.90;;;;;;5084680;28;19924;-88
2023/04/29 12:53:04;;;;;;;;;;;14.80;94.60;;;;;;5076415;28;19991;-87
2023/04/29 12:55:33;;;;;;;;;;;14.80;95.40;;;;;;5083983;28;19994;-88
2023/04/29 12:57:59;;;;;;;;;;;14.90;92.20;;;;;;5085016;28;19924;-90
2023/04/29 13:00:25;;;;;;;;;;;14.90;93.30;;;;;;5081950;28;20019;-90
2023/04/29 13:02:51;;;;;;;;;;;14.80;91.60;;;;;;5083721;28;19924;-89
2023/04/29 13:05:16;;;;;;;;;;;14.90;93.40;;;;;;5082894;28;19924;-89
2023/04/29 13:07:42;;;;;;;;;;;15.00;93.40;;;;;;5074189;28;20015;-89
2023/04/29 13:10:08;;;;;;;;;;;15.00;93.70;;;;;;5095595;28;19924;-89
2023/04/29 13:12:33;;;;;;;;;;;15.10;95.70;;;;;;5065347;28;19936;-89
2023/04/29 13:14:59;;;;;;;;;;;15.10;94.70;;;;;;5099488;28;19931;-88
2023/04/29 13:17:25;;;;;;;;;;;15.20;94.60;;;;;;5062800;28;19924;-89
2023/04/29 13:19:50;;;;;;;;;;;15.30;95.00;;;;;;5085323;28;19924;-88
2023/04/29 13:22:16;;;;;;;;;;;15.30;95.10;;;;;;5082351;28;19924;-89
2023/04/29 13:24:42;;;;;;;;;;;15.40;94.40;;;;;;5084486;28;20319;-88
2023/04/29 13:27:08;;;;;;;;;;;15.40;95.70;;;;;;5083153;28;19924;-88
2023/04/29 13:29:33;;;;;;;;;;;15.50;94.30;;;;;;5099970;28;19928;-88
2023/04/29 13:31:59;;;;;;;;;;;15.50;92.60;;;;;;5081291;28;19925;-88
2023/04/29 13:34:24;;;;;;;;;;;15.30;92.50;;;;;;5074617;28;19935;-89
2023/04/29 13:36:50;;;;;;;;;;;15.10;95.90;;;;;;5103748;28;20360;-90
2023/04/29 13:39:16;;;;;;;;;;;15.20;94.10;;;;;;5080582;28;19928;-89
2023/04/29 13:41:42;;;;;;;;;;;15.20;96.20;;;;;;5088543;28;20333;-90
2023/04/29 13:44:07;;;;;;;;;;;15.20;98.10;;;;;;5090754;28;19997;-87
2023/04/29 13:46:33;;;;;;;;;;;15.20;99.20;;;;;;5082200;28;20046;-88
2023/04/29 13:48:59;;;;;;;;;;;15.30;99.90;;;;;;5084809;28;19924;-89
2023/04/29 13:51:24;;;;;;;;;;;15.40;99.90;;;;;;5098100;28;19977;-89
2023/04/29 13:53:50;;;;;;;;;;;15.20;99.90;;;;;;5060675;28;20395;-88
2023/04/29 13:56:15;;;;;;;;;;;15.00;99.90;;;;;;5062037;28;19928;-90
2023/04/29 13:58:41;;;;;;;;;;;15.00;99.90;;;;;;5079970;28;19932;-90
2023/04/29 14:01:07;;;;;;;;;;;15.00;99.90;;;;;;5076030;28;20350;-88
2023/04/29 14:03:33;;;;;;;;;;;15.00;99.90;;;;;;5074699;28;19924;-89
2023/04/29 14:05:58;;;;;;;;;;;15.00;99.90;;;;;;5082575;28;19974;-90
2023/04/29 14:08:24;;;;;;;;;;;14.90;99.90;;;;;;5067463;28;20018;-88
2023/04/29 14:10:49;;;;;;;;;;;15.00;99.90;;;;;;5079444;28;20606;-88
2023/04/29 14:13:16;;;;;;;;;;;15.00;99.90;;;;;;5081758;28;20006;-90
2023/04/29 14:15:42;;;;;;;;;;;15.00;99.90;;;;;;5101998;28;19985;-89
2023/04/29 14:18:08;;;;;;;;;;;15.00;99.90;;;;;;5079421;28;19924;-89
2023/04/29 14:20:34;;;;;;;;;;;14.80;99.90;;;;;;5066624;28;20466;-89